sensor_id;sensor_type;location;lat;lon;timestamp;pressure;altitude;pressure_sealevel;temperature;humidity
48244;BME280;34053;51.088;6.572;2023-04-25T00:01:00;100445.31;;;8.65;62.59
48244;BME280;34053;51.088;6.572;2023-04-25T00:03:32;100442.91;;;8.56;62.78
48244;BME280;34053;51.088;6.572;2023-04-25T00:06:03;100439.88;;;8.74;62.18
48244;BME280;34053;51.088;6.572;2023-04-25T00:08:33;100444.25;;;8.74;62.16
48244;BME280;34053;51.088;6.572;2023-04-25T00:11:04;100452.78;;;8.82;61.59
48244;BME280;34053;51.088;6.572;2023-04-25T00:13:34;100447.19;;;8.60;63.34
48244;BME280;34053;51.088;6.572;2023-04-25T00:16:05;100446.88;;;8.72;62.11
48244;BME280;34053;51.088;6.572;2023-04-25T00:18:36;100447.59;;;8.79;61.44
48244;BME280;34053;51.088;6.572;2023-04-25T00:21:07;100450.28;;;8.77;61.63
48244;BME280;34053;51.088;6.572;2023-04-25T00:23:37;100453.63;;;8.82;61.56
48244;BME280;34053;51.088;6.572;2023-04-25T00:26:09;100450.06;;;8.85;61.01
48244;BME280;34053;51.088;6.572;2023-04-25T00:28:40;100457.13;;;8.81;61.57
48244;BME280;34053;51.088;6.572;2023-04-25T00:31:10;100466.81;;;8.78;61.75
48244;BME280;34053;51.088;6.572;2023-04-25T00:33:41;100468.50;;;8.80;61.46
48244;BME280;34053;51.088;6.572;2023-04-25T00:36:11;100465.81;;;8.84;61.54
48244;BME280;34053;51.088;6.572;2023-04-25T00:38:42;100465.81;;;8.84;61.21
48244;BME280;34053;51.088;6.572;2023-04-25T00:41:13;100465.94;;;8.79;61.58
48244;BME280;34053;51.088;6.572;2023-04-25T00:43:44;100465.81;;;8.84;60.93
48244;BME280;34053;51.088;6.572;2023-04-25T00:46:16;100463.41;;;8.76;62.22
48244;BME280;34053;51.088;6.572;2023-04-25T00:48:46;100468.75;;;8.71;62.11
48244;BME280;34053;51.088;6.572;2023-04-25T00:51:20;100469.53;;;8.73;61.59
48244;BME280;34053;51.088;6.572;2023-04-25T00:53:51;100469.44;;;7.96;65.54
48244;BME280;34053;51.088;6.572;2023-04-25T00:56:21;100457.09;;;8.44;62.47
48244;BME280;34053;51.088;6.572;2023-04-25T00:58:53;100460.38;;;8.55;61.94
48244;BME280;34053;51.088;6.572;2023-04-25T01:01:25;100466.22;;;7.83;66.29
48244;BME280;34053;51.088;6.572;2023-04-25T01:03:58;100465.56;;;8.14;64.67
48244;BME280;34053;51.088;6.572;2023-04-25T01:06:28;100465.53;;;8.17;64.60
48244;BME280;34053;51.088;6.572;2023-04-25T01:09:01;100460.66;;;8.41;62.96
48244;BME280;34053;51.088;6.572;2023-04-25T01:11:33;100463.78;;;8.16;65.07
48244;BME280;34053;51.088;6.572;2023-04-25T01:14:03;100465.28;;;8.28;64.54
48244;BME280;34053;51.088;6.572;2023-04-25T01:16:34;100457.91;;;7.63;67.41
48244;BME280;34053;51.088;6.572;2023-04-25T01:19:09;100463.63;;;7.82;66.66
48244;BME280;34053;51.088;6.572;2023-04-25T01:21:41;100462.59;;;7.45;68.88
48244;BME280;34053;51.088;6.572;2023-04-25T01:24:13;100467.97;;;7.81;66.38
48244;BME280;34053;51.088;6.572;2023-04-25T01:26:43;100466.56;;;7.65;68.07
48244;BME280;34053;51.088;6.572;2023-04-25T01:29:20;100472.44;;;7.31;69.66
48244;BME280;34053;51.088;6.572;2023-04-25T01:31:52;100466.81;;;7.52;68.48
48244;BME280;34053;51.088;6.572;2023-04-25T01:34:23;100482.50;;;7.49;68.27
48244;BME280;34053;51.088;6.572;2023-04-25T01:36:53;100466.22;;;7.83;66.71
48244;BME280;34053;51.088;6.572;2023-04-25T01:39:24;100468.19;;;7.70;67.31
48244;BME280;34053;51.088;6.572;2023-04-25T01:41:55;100468.69;;;7.44;69.04
48244;BME280;34053;51.088;6.572;2023-04-25T01:44:26;100471.78;;;7.16;70.15
48244;BME280;34053;51.088;6.572;2023-04-25T01:46:56;100480.75;;;7.51;67.81
48244;BME280;34053;51.088;6.572;2023-04-25T01:49:27;100474.47;;;7.62;67.13
48244;BME280;34053;51.088;6.572;2023-04-25T01:51:57;100483.13;;;7.64;67.52
48244;BME280;34053;51.088;6.572;2023-04-25T01:54:28;100482.94;;;7.73;66.33
48244;BME280;34053;51.088;6.572;2023-04-25T01:56:58;100478.34;;;7.87;66.21
48244;BME280;34053;51.088;6.572;2023-04-25T01:59:30;100479.84;;;7.98;65.12
48244;BME280;34053;51.088;6.572;2023-04-25T02:02:00;100484.66;;;7.76;67.60
48244;BME280;34053;51.088;6.572;2023-04-25T02:04:33;100492.41;;;7.80;67.04
48244;BME280;34053;51.088;6.572;2023-04-25T02:07:04;100495.16;;;7.72;67.98
48244;BME280;34053;51.088;6.572;2023-04-25T02:09:35;100498.16;;;7.49;69.48
48244;BME280;34053;51.088;6.572;2023-04-25T02:12:09;100497.97;;;7.62;68.39
48244;BME280;34053;51.088;6.572;2023-04-25T02:14:39;100493.31;;;7.31;70.23
48244;BME280;34053;51.088;6.572;2023-04-25T02:17:10;100503.97;;;7.15;71.55
48244;BME280;34053;51.088;6.572;2023-04-25T02:19:43;100501.91;;;7.36;70.18
48244;BME280;34053;51.088;6.572;2023-04-25T02:22:13;100496.72;;;7.33;70.51
48244;BME280;34053;51.088;6.572;2023-04-25T02:24:45;100496.38;;;7.53;68.63
48244;BME280;34053;51.088;6.572;2023-04-25T02:27:16;100490.22;;;7.57;69.04
48244;BME280;34053;51.088;6.572;2023-04-25T02:29:47;100494.91;;;7.38;70.53
48244;BME280;34053;51.088;6.572;2023-04-25T02:32:17;100486.44;;;7.74;67.04
48244;BME280;34053;51.088;6.572;2023-04-25T02:34:47;100495.69;;;7.90;66.42
48244;BME280;34053;51.088;6.572;2023-04-25T02:37:18;100500.75;;;7.98;66.00
48244;BME280;34053;51.088;6.572;2023-04-25T02:39:48;100496.28;;;8.04;65.63
48244;BME280;34053;51.088;6.572;2023-04-25T02:42:19;100498.00;;;8.06;65.80
48244;BME280;34053;51.088;6.572;2023-04-25T02:44:49;100492.63;;;8.12;65.26
48244;BME280;34053;51.088;6.572;2023-04-25T02:47:20;100494.44;;;8.08;66.42
48244;BME280;34053;51.088;6.572;2023-04-25T02:49:51;100491.91;;;8.05;66.42
48244;BME280;34053;51.088;6.572;2023-04-25T02:52:21;100490.94;;;8.09;66.49
48244;BME280;34053;51.088;6.572;2023-04-25T02:54:52;100481.25;;;8.14;65.18
48244;BME280;34053;51.088;6.572;2023-04-25T02:57:23;100491.66;;;8.17;65.33
48244;BME280;34053;51.088;6.572;2023-04-25T02:59:53;100491.59;;;8.21;65.06
48244;BME280;34053;51.088;6.572;2023-04-25T03:02:23;100482.88;;;8.22;64.92
48244;BME280;34053;51.088;6.572;2023-04-25T03:04:54;100483.66;;;8.25;64.97
48244;BME280;34053;51.088;6.572;2023-04-25T03:07:25;100493.25;;;8.25;65.49
48244;BME280;34053;51.088;6.572;2023-04-25T03:09:55;100481.06;;;8.24;65.43
48244;BME280;34053;51.088;6.572;2023-04-25T03:12:26;100486.19;;;8.28;64.91
48244;BME280;34053;51.088;6.572;2023-04-25T03:14:57;100492.44;;;7.77;69.11
48244;BME280;34053;51.088;6.572;2023-04-25T03:17:27;100493.44;;;8.15;65.86
48244;BME280;34053;51.088;6.572;2023-04-25T03:19:58;100489.78;;;8.23;65.39
48244;BME280;34053;51.088;6.572;2023-04-25T03:22:29;100485.38;;;8.26;65.97
48244;BME280;34053;51.088;6.572;2023-04-25T03:24:59;100497.59;;;8.26;65.72
48244;BME280;34053;51.088;6.572;2023-04-25T03:27:30;100495.09;;;8.19;65.98
48244;BME280;34053;51.088;6.572;2023-04-25T03:30:00;100487.97;;;8.28;65.31
48244;BME280;34053;51.088;6.572;2023-04-25T03:32:31;100494.94;;;8.27;64.69
48244;BME280;34053;51.088;6.572;2023-04-25T03:35:01;100497.63;;;8.23;65.42
48244;BME280;34053;51.088;6.572;2023-04-25T03:37:32;100497.53;;;8.29;64.98
48244;BME280;34053;51.088;6.572;2023-04-25T03:40:05;100495.75;;;8.29;64.75
48244;BME280;34053;51.088;6.572;2023-04-25T03:42:36;100498.41;;;8.28;65.16
48244;BME280;34053;51.088;6.572;2023-04-25T03:45:07;100497.53;;;8.29;65.73
48244;BME280;34053;51.088;6.572;2023-04-25T03:47:38;100500.19;;;8.26;65.83
48244;BME280;34053;51.088;6.572;2023-04-25T03:50:09;100495.84;;;8.26;65.63
48244;BME280;34053;51.088;6.572;2023-04-25T03:52:40;100502.06;;;8.21;65.33
48244;BME280;34053;51.088;6.572;2023-04-25T03:55:10;100504.56;;;8.25;66.39
48244;BME280;34053;51.088;6.572;2023-04-25T03:57:41;100505.38;;;8.29;66.11
48244;BME280;34053;51.088;6.572;2023-04-25T04:00:12;100515.75;;;8.32;65.06
48244;BME280;34053;51.088;6.572;2023-04-25T04:02:43;100508.00;;;8.27;65.06
48244;BME280;34053;51.088;6.572;2023-04-25T04:05:13;100513.34;;;8.21;65.16
48244;BME280;34053;51.088;6.572;2023-04-25T04:07:44;100502.75;;;8.27;64.95
48244;BME280;34053;51.088;6.572;2023-04-25T04:10:14;100515.00;;;8.27;65.06
48244;BME280;34053;51.088;6.572;2023-04-25T04:12:45;100519.38;;;8.25;64.78
48244;BME280;34053;51.088;6.572;2023-04-25T04:15:16;100519.81;;;8.03;66.92
48244;BME280;34053;51.088;6.572;2023-04-25T04:17:48;100526.50;;;8.16;65.27
48244;BME280;34053;51.088;6.572;2023-04-25T04:20:18;100523.38;;;8.00;67.62
48244;BME280;34053;51.088;6.572;2023-04-25T04:22:49;100527.34;;;8.18;65.63
48244;BME280;34053;51.088;6.572;2023-04-25T04:25:19;100527.41;;;8.15;65.95
48244;BME280;34053;51.088;6.572;2023-04-25T04:27:50;100521.38;;;8.13;66.19
48244;BME280;34053;51.088;6.572;2023-04-25T04:30:25;100528.78;;;7.90;67.99
48244;BME280;34053;51.088;6.572;2023-04-25T04:32:56;100531.59;;;7.80;68.67
48244;BME280;34053;51.088;6.572;2023-04-25T04:35:29;100537.97;;;7.64;69.23
48244;BME280;34053;51.088;6.572;2023-04-25T04:38:03;100531.78;;;7.68;69.00
48244;BME280;34053;51.088;6.572;2023-04-25T04:40:33;100544.56;;;7.83;67.79
48244;BME280;34053;51.088;6.572;2023-04-25T04:43:11;100544.94;;;7.63;69.33
48244;BME280;34053;51.088;6.572;2023-04-25T04:50:16;100557.66;;;7.30;71.55
48244;BME280;34053;51.088;6.572;2023-04-25T04:52:54;100550.16;;;7.63;69.02
48244;BME280;34053;51.088;6.572;2023-04-25T04:59:33;100565.31;;;7.41;70.57
48244;BME280;34053;51.088;6.572;2023-04-25T05:02:03;100567.94;;;7.41;71.31
48244;BME280;34053;51.088;6.572;2023-04-25T05:04:34;100572.28;;;7.42;70.48
48244;BME280;34053;51.088;6.572;2023-04-25T05:07:04;100570.91;;;7.19;72.19
48244;BME280;34053;51.088;6.572;2023-04-25T05:09:54;100573.69;;;7.07;72.81
48244;BME280;34053;51.088;6.572;2023-04-25T05:12:27;100572.09;;;6.97;73.18
48244;BME280;34053;51.088;6.572;2023-04-25T05:15:16;100579.63;;;7.17;72.00
48244;BME280;34053;51.088;6.572;2023-04-25T05:26:07;100595.53;;;7.01;72.35
48244;BME280;34053;51.088;6.572;2023-04-25T05:28:46;100594.06;;;6.78;73.77
48244;BME280;34053;51.088;6.572;2023-04-25T05:31:17;100588.47;;;7.06;71.93
48244;BME280;34053;51.088;6.572;2023-04-25T05:33:47;100592.06;;;6.99;72.18
48244;BME280;34053;51.088;6.572;2023-04-25T05:36:18;100597.91;;;7.15;71.33
48244;BME280;34053;51.088;6.572;2023-04-25T05:38:49;100597.63;;;7.34;70.32
48244;BME280;34053;51.088;6.572;2023-04-25T05:41:20;100604.84;;;7.16;71.27
48244;BME280;34053;51.088;6.572;2023-04-25T05:43:50;100605.53;;;7.31;70.39
48244;BME280;34053;51.088;6.572;2023-04-25T05:46:20;100597.69;;;7.29;70.86
48244;BME280;34053;51.088;6.572;2023-04-25T05:48:51;100603.28;;;7.06;71.59
48244;BME280;34053;51.088;6.572;2023-04-25T05:51:21;100616.09;;;7.20;70.89
48244;BME280;34053;51.088;6.572;2023-04-25T05:53:52;100613.50;;;7.21;70.88
48244;BME280;34053;51.088;6.572;2023-04-25T05:56:22;100626.13;;;6.88;72.23
48244;BME280;34053;51.088;6.572;2023-04-25T05:58:53;100625.84;;;7.07;71.84
48244;BME280;34053;51.088;6.572;2023-04-25T06:01:23;100631.00;;;7.12;70.89
48244;BME280;34053;51.088;6.572;2023-04-25T06:03:54;100630.88;;;7.22;70.93
48244;BME280;34053;51.088;6.572;2023-04-25T06:06:24;100624.94;;;7.11;70.82
48244;BME280;34053;51.088;6.572;2023-04-25T06:08:56;100626.38;;;6.67;72.96
48244;BME280;34053;51.088;6.572;2023-04-25T06:11:27;100631.81;;;7.17;70.10
48244;BME280;34053;51.088;6.572;2023-04-25T06:13:57;100643.16;;;7.16;70.67
48244;BME280;34053;51.088;6.572;2023-04-25T06:16:28;100640.16;;;7.40;71.04
48244;BME280;34053;51.088;6.572;2023-04-25T06:18:58;100638.41;;;7.43;70.24
48244;BME280;34053;51.088;6.572;2023-04-25T06:21:29;100640.22;;;7.39;69.54
48244;BME280;34053;51.088;6.572;2023-04-25T06:23:59;100637.06;;;7.14;70.95
48244;BME280;34053;51.088;6.572;2023-04-25T06:26:30;100639.25;;;7.43;69.83
48244;BME280;34053;51.088;6.572;2023-04-25T06:29:00;100646.13;;;7.49;69.79
48244;BME280;34053;51.088;6.572;2023-04-25T06:31:30;100643.78;;;7.30;69.96
48244;BME280;34053;51.088;6.572;2023-04-25T06:34:03;100646.34;;;7.35;71.08
48244;BME280;34053;51.088;6.572;2023-04-25T06:36:33;100642.44;;;7.64;69.15
48244;BME280;34053;51.088;6.572;2023-04-25T06:39:03;100645.25;;;7.50;69.60
48244;BME280;34053;51.088;6.572;2023-04-25T06:41:35;100653.16;;;7.45;69.17
48244;BME280;34053;51.088;6.572;2023-04-25T06:44:05;100656.88;;;7.29;69.71
48244;BME280;34053;51.088;6.572;2023-04-25T06:46:36;100658.41;;;7.42;69.20
48244;BME280;34053;51.088;6.572;2023-04-25T06:49:07;100660.09;;;7.46;69.59
48244;BME280;34053;51.088;6.572;2023-04-25T06:51:38;100666.00;;;7.57;68.76
48244;BME280;34053;51.088;6.572;2023-04-25T06:54:08;100671.28;;;7.53;69.26
48244;BME280;34053;51.088;6.572;2023-04-25T06:56:39;100676.13;;;7.78;68.16
48244;BME280;34053;51.088;6.572;2023-04-25T06:59:12;100676.22;;;7.75;68.06
48244;BME280;34053;51.088;6.572;2023-04-25T07:01:42;100681.59;;;7.62;68.16
48244;BME280;34053;51.088;6.572;2023-04-25T07:04:13;100688.34;;;7.77;68.15
48244;BME280;34053;51.088;6.572;2023-04-25T07:06:44;100689.94;;;7.86;67.60
48244;BME280;34053;51.088;6.572;2023-04-25T07:09:14;100685.38;;;7.99;67.27
48244;BME280;34053;51.088;6.572;2023-04-25T07:11:45;100688.31;;;7.80;67.61
48244;BME280;34053;51.088;6.572;2023-04-25T07:14:15;100686.09;;;7.54;68.38
48244;BME280;34053;51.088;6.572;2023-04-25T07:16:46;100687.94;;;7.47;68.09
48244;BME280;34053;51.088;6.572;2023-04-25T07:19:16;100692.41;;;7.97;66.99
48244;BME280;34053;51.088;6.572;2023-04-25T07:21:47;100695.88;;;7.96;67.21
48244;BME280;34053;51.088;6.572;2023-04-25T07:24:17;100700.25;;;7.95;66.37
48244;BME280;34053;51.088;6.572;2023-04-25T07:26:48;100697.66;;;7.94;66.77
48244;BME280;34053;51.088;6.572;2023-04-25T07:29:18;100697.63;;;7.97;66.63
48244;BME280;34053;51.088;6.572;2023-04-25T07:31:49;100706.88;;;8.15;65.85
48244;BME280;34053;51.088;6.572;2023-04-25T07:34:19;100700.97;;;8.05;65.07
48244;BME280;34053;51.088;6.572;2023-04-25T07:36:50;100700.63;;;8.24;65.10
48244;BME280;34053;51.088;6.572;2023-04-25T07:39:20;100707.88;;;8.06;65.29
48244;BME280;34053;51.088;6.572;2023-04-25T07:41:51;100700.91;;;8.08;65.00
48244;BME280;34053;51.088;6.572;2023-04-25T07:44:21;100702.53;;;8.14;64.62
48244;BME280;34053;51.088;6.572;2023-04-25T07:46:52;100710.22;;;8.23;64.59
48244;BME280;34053;51.088;6.572;2023-04-25T07:49:22;100707.25;;;7.93;63.45
48244;BME280;34053;51.088;6.572;2023-04-25T07:51:53;100720.22;;;7.98;62.89
48244;BME280;34053;51.088;6.572;2023-04-25T07:54:23;100715.34;;;7.76;63.06
48244;BME280;34053;51.088;6.572;2023-04-25T07:56:54;100722.91;;;7.95;63.23
48244;BME280;34053;51.088;6.572;2023-04-25T07:59:24;100720.00;;;8.13;63.04
48244;BME280;34053;51.088;6.572;2023-04-25T08:01:55;100719.41;;;7.94;62.90
48244;BME280;34053;51.088;6.572;2023-04-25T08:04:27;100728.38;;;8.31;63.36
48244;BME280;34053;51.088;6.572;2023-04-25T08:06:58;100733.56;;;8.34;60.71
48244;BME280;34053;51.088;6.572;2023-04-25T08:09:28;100736.84;;;8.45;61.32
48244;BME280;34053;51.088;6.572;2023-04-25T08:12:04;100740.56;;;8.33;61.47
48244;BME280;34053;51.088;6.572;2023-04-25T08:14:34;100745.63;;;8.41;60.95
48244;BME280;34053;51.088;6.572;2023-04-25T08:17:10;100750.97;;;8.35;61.54
48244;BME280;34053;51.088;6.572;2023-04-25T08:19:40;100747.47;;;8.36;61.70
48244;BME280;34053;51.088;6.572;2023-04-25T08:22:11;100750.09;;;8.36;59.63
48244;BME280;34053;51.088;6.572;2023-04-25T08:24:42;100750.94;;;8.37;59.94
48244;BME280;34053;51.088;6.572;2023-04-25T08:27:16;100756.78;;;8.54;59.11
48244;BME280;34053;51.088;6.572;2023-04-25T08:29:47;100760.44;;;8.42;59.62
48244;BME280;34053;51.088;6.572;2023-04-25T08:32:18;100767.44;;;8.40;58.20
48244;BME280;34053;51.088;6.572;2023-04-25T08:34:50;100759.47;;;8.49;60.10
48244;BME280;34053;51.088;6.572;2023-04-25T08:37:24;100757.66;;;8.55;57.08
48244;BME280;34053;51.088;6.572;2023-04-25T08:39:54;100768.28;;;8.42;56.12
48244;BME280;34053;51.088;6.572;2023-04-25T08:42:27;100771.41;;;8.64;57.08
48244;BME280;34053;51.088;6.572;2023-04-25T08:45:00;100769.56;;;8.71;56.65
48244;BME280;34053;51.088;6.572;2023-04-25T08:47:33;100775.47;;;8.81;56.47
48244;BME280;34053;51.088;6.572;2023-04-25T08:50:05;100782.34;;;8.85;55.05
48244;BME280;34053;51.088;6.572;2023-04-25T08:52:40;100777.56;;;8.62;53.33
48244;BME280;34053;51.088;6.572;2023-04-25T08:55:13;100780.63;;;8.86;56.07
48244;BME280;34053;51.088;6.572;2023-04-25T08:57:44;100793.91;;;8.73;54.83
48244;BME280;34053;51.088;6.572;2023-04-25T09:00:15;100794.63;;;8.81;54.24
48244;BME280;34053;51.088;6.572;2023-04-25T09:02:46;100798.06;;;8.85;54.59
48244;BME280;34053;51.088;6.572;2023-04-25T09:05:18;100795.31;;;8.93;56.42
48244;BME280;34053;51.088;6.572;2023-04-25T09:07:48;100794.19;;;9.05;57.13
48244;BME280;34053;51.088;6.572;2023-04-25T09:10:19;100800.06;;;9.18;56.87
48244;BME280;34053;51.088;6.572;2023-04-25T09:13:06;100810.28;;;9.30;56.21
48244;BME280;34053;51.088;6.572;2023-04-25T09:15:55;100813.06;;;9.22;55.55
48244;BME280;34053;51.088;6.572;2023-04-25T09:18:31;100814.09;;;9.13;55.18
48244;BME280;34053;51.088;6.572;2023-04-25T09:21:08;100820.19;;;9.14;54.15
48244;BME280;34053;51.088;6.572;2023-04-25T09:23:48;100820.13;;;9.19;55.34
48244;BME280;34053;51.088;6.572;2023-04-25T09:26:20;100823.44;;;9.27;54.86
48244;BME280;34053;51.088;6.572;2023-04-25T09:29:04;100838.22;;;9.29;56.41
48244;BME280;34053;51.088;6.572;2023-04-25T09:31:36;100827.66;;;9.34;56.66
48244;BME280;34053;51.088;6.572;2023-04-25T09:34:07;100830.22;;;9.37;56.60
48244;BME280;34053;51.088;6.572;2023-04-25T09:36:40;100827.66;;;9.34;57.33
48244;BME280;34053;51.088;6.572;2023-04-25T09:39:12;100830.84;;;9.50;57.15
48244;BME280;34053;51.088;6.572;2023-04-25T09:41:46;100835.94;;;9.56;57.44
48244;BME280;34053;51.088;6.572;2023-04-25T09:44:23;100836.66;;;9.63;56.94
48244;BME280;34053;51.088;6.572;2023-04-25T09:46:53;100838.22;;;9.72;57.85
48244;BME280;34053;51.088;6.572;2023-04-25T09:49:25;100847.03;;;9.69;57.21
48244;BME280;34053;51.088;6.572;2023-04-25T09:51:57;100839.91;;;9.74;57.32
48244;BME280;34053;51.088;6.572;2023-04-25T09:54:27;100853.16;;;9.68;56.17
48244;BME280;34053;51.088;6.572;2023-04-25T09:57:05;100853.59;;;9.47;55.06
48244;BME280;34053;51.088;6.572;2023-04-25T09:59:43;100840.16;;;9.64;55.17
48244;BME280;34053;51.088;6.572;2023-04-25T10:02:16;100844.03;;;9.44;50.86
48244;BME280;34053;51.088;6.572;2023-04-25T10:04:49;100860.88;;;9.74;52.96
48244;BME280;34053;51.088;6.572;2023-04-25T10:07:23;100861.22;;;9.59;53.52
48244;BME280;34053;51.088;6.572;2023-04-25T10:10:01;100866.13;;;9.74;54.43
48244;BME280;34053;51.088;6.572;2023-04-25T10:12:33;100871.25;;;9.79;53.80
48244;BME280;34053;51.088;6.572;2023-04-25T10:15:04;100876.34;;;9.87;54.22
48244;BME280;34053;51.088;6.572;2023-04-25T10:17:35;100876.91;;;9.59;52.83
48244;BME280;34053;51.088;6.572;2023-04-25T10:20:07;100874.50;;;9.50;52.49
48244;BME280;34053;51.088;6.572;2023-04-25T10:22:47;100887.09;;;9.74;53.16
48244;BME280;34053;51.088;6.572;2023-04-25T10:25:18;100873.88;;;9.79;51.96
48244;BME280;34053;51.088;6.572;2023-04-25T10:27:53;100874.81;;;9.76;51.64
48244;BME280;34053;51.088;6.572;2023-04-25T10:30:24;100878.28;;;9.79;51.38
48244;BME280;34053;51.088;6.572;2023-04-25T10:32:55;100884.59;;;9.68;50.33
48244;BME280;34053;51.088;6.572;2023-04-25T10:35:29;100883.00;;;9.61;51.00
48244;BME280;34053;51.088;6.572;2023-04-25T10:38:04;100884.59;;;9.68;51.68
48244;BME280;34053;51.088;6.572;2023-04-25T10:40:35;100879.78;;;9.89;52.18
48244;BME280;34053;51.088;6.572;2023-04-25T10:46:02;100886.84;;;9.85;50.45
48244;BME280;34053;51.088;6.572;2023-04-25T10:48:34;100878.94;;;9.88;50.75
48244;BME280;34053;51.088;6.572;2023-04-25T10:51:11;100874.38;;;9.97;49.93
48244;BME280;34053;51.088;6.572;2023-04-25T10:53:44;100885.25;;;9.78;49.35
48244;BME280;34053;51.088;6.572;2023-04-25T10:56:35;100891.69;;;10.04;51.31
48244;BME280;34053;51.088;6.572;2023-04-25T10:59:12;100892.78;;;9.95;49.21
48244;BME280;34053;51.088;6.572;2023-04-25T11:01:47;100879.44;;;10.04;50.68
48244;BME280;34053;51.088;6.572;2023-04-25T11:04:31;100886.66;;;9.95;49.57
48244;BME280;34053;51.088;6.572;2023-04-25T11:07:32;100897.72;;;10.07;48.96
48244;BME280;34053;51.088;6.572;2023-04-25T11:10:05;100886.91;;;10.23;49.76
48244;BME280;34053;51.088;6.572;2023-04-25T11:12:36;100881.75;;;10.20;47.94
48244;BME280;34053;51.088;6.572;2023-04-25T11:15:07;100892.09;;;10.26;48.38
48244;BME280;34053;51.088;6.572;2023-04-25T11:17:38;100889.78;;;10.12;47.32
48244;BME280;34053;51.088;6.572;2023-04-25T11:20:10;100881.97;;;10.09;48.98
48244;BME280;34053;51.088;6.572;2023-04-25T11:22:44;100884.25;;;10.24;48.22
48244;BME280;34053;51.088;6.572;2023-04-25T11:25:15;100884.81;;;10.39;48.23
48244;BME280;34053;51.088;6.572;2023-04-25T11:30:22;100882.38;;;10.67;47.41
48244;BME280;34053;51.088;6.572;2023-04-25T11:32:53;100869.72;;;10.83;46.95
48244;BME280;34053;51.088;6.572;2023-04-25T11:35:23;100871.56;;;10.80;44.61
48244;BME280;34053;51.088;6.572;2023-04-25T11:37:55;100876.81;;;10.80;42.89
48244;BME280;34053;51.088;6.572;2023-04-25T11:40:26;100874.19;;;10.80;44.37
48244;BME280;34053;51.088;6.572;2023-04-25T11:42:59;100873.66;;;11.01;45.49
48244;BME280;34053;51.088;6.572;2023-04-25T11:45:30;100871.69;;;11.10;45.80
48244;BME280;34053;51.088;6.572;2023-04-25T11:48:01;100876.34;;;10.98;44.52
48244;BME280;34053;51.088;6.572;2023-04-25T11:50:32;100873.34;;;10.79;42.82
48244;BME280;34053;51.088;6.572;2023-04-25T11:53:03;100881.44;;;11.05;43.36
48244;BME280;34053;51.088;6.572;2023-04-25T11:55:37;100877.69;;;10.80;43.91
48244;BME280;34053;51.088;6.572;2023-04-25T11:58:10;100886.03;;;10.96;44.76
48244;BME280;34053;51.088;6.572;2023-04-25T12:00:42;100886.97;;;10.94;44.61
48244;BME280;34053;51.088;6.572;2023-04-25T12:03:12;100898.00;;;11.07;45.45
48244;BME280;34053;51.088;6.572;2023-04-25T12:05:44;100906.50;;;11.16;46.91
48244;BME280;34053;51.088;6.572;2023-04-25T12:08:16;100918.53;;;11.25;46.64
48244;BME280;34053;51.088;6.572;2023-04-25T12:10:46;100919.56;;;11.20;47.18
48244;BME280;34053;51.088;6.572;2023-04-25T12:13:22;100926.47;;;11.24;46.93
48244;BME280;34053;51.088;6.572;2023-04-25T12:15:56;100928.50;;;11.12;46.62
48244;BME280;34053;51.088;6.572;2023-04-25T12:18:27;100922.94;;;10.90;46.77
48244;BME280;34053;51.088;6.572;2023-04-25T12:20:59;100919.25;;;10.97;46.97
48244;BME280;34053;51.088;6.572;2023-04-25T12:23:45;100918.59;;;11.24;47.38
48244;BME280;34053;51.088;6.572;2023-04-25T12:26:18;100926.41;;;11.25;44.89
48244;BME280;34053;51.088;6.572;2023-04-25T12:28:50;100920.56;;;11.47;44.86
48244;BME280;34053;51.088;6.572;2023-04-25T12:31:21;100923.72;;;11.60;42.68
48244;BME280;34053;51.088;6.572;2023-04-25T12:33:52;100921.88;;;11.63;44.28
48244;BME280;34053;51.088;6.572;2023-04-25T12:36:23;100925.13;;;11.72;42.90
48244;BME280;34053;51.088;6.572;2023-04-25T12:38:53;100919.88;;;12.03;43.92
48244;BME280;34053;51.088;6.572;2023-04-25T12:41:24;100920.63;;;11.77;41.31
48244;BME280;34053;51.088;6.572;2023-04-25T12:43:55;100924.53;;;11.93;42.30
48244;BME280;34053;51.088;6.572;2023-04-25T12:46:25;100916.25;;;12.07;43.76
48244;BME280;34053;51.088;6.572;2023-04-25T12:48:56;100917.69;;;12.18;41.56
48244;BME280;34053;51.088;6.572;2023-04-25T12:51:27;100925.91;;;12.07;40.09
48244;BME280;34053;51.088;6.572;2023-04-25T12:53:59;100921.72;;;12.30;39.14
48244;BME280;34053;51.088;6.572;2023-04-25T12:56:31;100928.50;;;12.08;37.61
48244;BME280;34053;51.088;6.572;2023-04-25T12:59:02;100936.63;;;12.01;37.20
48244;BME280;34053;51.088;6.572;2023-04-25T13:01:33;100932.97;;;12.05;37.81
48244;BME280;34053;51.088;6.572;2023-04-25T13:04:03;100931.31;;;12.02;36.25
48244;BME280;34053;51.088;6.572;2023-04-25T13:06:34;100948.94;;;11.99;37.76
48244;BME280;34053;51.088;6.572;2023-04-25T13:09:04;100937.41;;;12.04;37.21
48244;BME280;34053;51.088;6.572;2023-04-25T13:11:35;100930.72;;;12.22;37.66
48244;BME280;34053;51.088;6.572;2023-04-25T13:14:05;100928.97;;;12.50;37.58
48244;BME280;34053;51.088;6.572;2023-04-25T13:16:37;100942.91;;;12.53;38.01
48244;BME280;34053;51.088;6.572;2023-04-25T13:19:07;100926.28;;;12.80;38.78
48244;BME280;34053;51.088;6.572;2023-04-25T13:21:41;100933.41;;;12.49;37.84
48244;BME280;34053;51.088;6.572;2023-04-25T13:24:11;100932.97;;;12.62;38.36
48244;BME280;34053;51.088;6.572;2023-04-25T13:26:42;100945.81;;;12.44;38.74
48244;BME280;34053;51.088;6.572;2023-04-25T13:29:12;100944.41;;;12.60;40.24
48244;BME280;34053;51.088;6.572;2023-04-25T13:31:43;100946.16;;;12.62;40.55
48244;BME280;34053;51.088;6.572;2023-04-25T13:34:14;100950.22;;;12.72;39.20
48244;BME280;34053;51.088;6.572;2023-04-25T13:36:44;100944.75;;;12.78;38.43
48244;BME280;34053;51.088;6.572;2023-04-25T13:39:15;100945.25;;;12.63;37.84
48244;BME280;34053;51.088;6.572;2023-04-25T13:41:46;100947.69;;;12.96;40.03
48244;BME280;34053;51.088;6.572;2023-04-25T13:44:16;100956.31;;;12.74;39.46